Time;durP1;ratioP1;P1;durP2;ratioP2;P2;SDS_P1;SDS_P2;PMS_P1;PMS_P2;Temp;Humidity;BMP_temperature;BMP_pressure;BME280_temperature;BME280_humidity;BME280_pressure;Samples;Min_cycle;Max_cycle;Signal;HPM_P1;HPM_P2
2023/11/19 00:00:06;;;;;;;;;0.00;0.00;;;;;;;;5010988;28;46123;-71
2023/11/19 00:02:31;;;;;;;;;0.00;0.00;;;;;;;;5011697;28;45609;-70
2023/11/19 00:04:56;;;;;;;;;1.00;1.00;;;;;;;;5010639;28;46388;-67
2023/11/19 00:07:24;;;;;;;;;1.00;1.00;;;;;;;;5011571;28;45512;-71
2023/11/19 00:09:49;;;;;;;;;0.33;0.33;;;;;;;;5010497;28;45502;-69
2023/11/19 00:12:15;;;;;;;;;0.33;0.00;;;;;;;;5011507;28;45534;-68
2023/11/19 00:14:40;;;;;;;;;0.00;0.00;;;;;;;;5010857;28;45775;-68
2023/11/19 00:17:06;;;;;;;;;0.00;0.00;;;;;;;;5010470;28;45482;-68
2023/11/19 00:19:31;;;;;;;;;0.67;0.67;;;;;;;;5009347;28;46118;-70
2023/11/19 00:21:56;;;;;;;;;0.33;0.33;;;;;;;;5010313;28;45647;-68
2023/11/19 00:24:21;;;;;;;;;0.00;0.00;;;;;;;;5008276;28;46488;-68
2023/11/19 00:26:47;;;;;;;;;1.00;1.00;;;;;;;;5007786;28;46651;-67
2023/11/19 00:29:13;;;;;;;;;1.00;1.00;;;;;;;;5011698;28;45652;-72
2023/11/19 00:31:39;;;;;;;;;0.00;0.00;;;;;;;;5011850;28;45437;-67
2023/11/19 00:34:06;;;;;;;;;0.00;0.00;;;;;;;;5010141;28;45654;-68
2023/11/19 00:36:31;;;;;;;;;0.33;0.33;;;;;;;;5009972;28;45572;-68
2023/11/19 00:38:58;;;;;;;;;0.67;0.67;;;;;;;;5010784;28;45416;-71
2023/11/19 00:41:23;;;;;;;;;2.00;0.00;;;;;;;;5006570;28;45966;-68
2023/11/19 00:43:49;;;;;;;;;2.00;0.00;;;;;;;;5010048;28;46792;-70
2023/11/19 00:46:14;;;;;;;;;2.00;0.00;;;;;;;;5009357;28;45542;-69
2023/11/19 00:48:40;;;;;;;;;0.00;0.00;;;;;;;;5010388;28;46125;-67
2023/11/19 00:51:05;;;;;;;;;1.67;0.33;;;;;;;;5010249;28;45482;-66
2023/11/19 00:53:32;;;;;;;;;1.67;0.00;;;;;;;;5009224;28;45613;-69
2023/11/19 00:55:57;;;;;;;;;3.00;0.00;;;;;;;;5005712;28;45513;-68
2023/11/19 00:58:22;;;;;;;;;1.00;1.00;;;;;;;;5010360;28;46042;-68
2023/11/19 01:00:50;;;;;;;;;2.33;0.00;;;;;;;;5010616;28;45385;-68
2023/11/19 01:03:15;;;;;;;;;1.33;0.00;;;;;;;;5010160;28;46100;-68
2023/11/19 01:05:41;;;;;;;;;1.33;0.00;;;;;;;;5009778;28;45553;-70
2023/11/19 01:08:06;;;;;;;;;1.00;1.00;;;;;;;;5009873;28;45805;-68
2023/11/19 01:10:31;;;;;;;;;0.00;0.00;;;;;;;;5009556;28;45525;-71
2023/11/19 01:12:59;;;;;;;;;2.00;1.00;;;;;;;;5009612;28;46245;-72
2023/11/19 01:15:24;;;;;;;;;0.00;0.00;;;;;;;;5009220;28;45563;-68
2023/11/19 01:17:50;;;;;;;;;0.00;0.00;;;;;;;;5009325;28;46078;-69
2023/11/19 01:20:15;;;;;;;;;1.00;1.00;;;;;;;;5007852;28;45558;-70
2023/11/19 01:22:40;;;;;;;;;0.00;0.00;;;;;;;;5010550;28;46728;-71
2023/11/19 01:25:06;;;;;;;;;0.00;0.00;;;;;;;;5008758;28;45567;-68
2023/11/19 01:27:31;;;;;;;;;1.00;0.00;;;;;;;;5010524;28;45458;-67
2023/11/19 01:29:56;;;;;;;;;1.00;1.00;;;;;;;;5009268;28;45932;-70
2023/11/19 01:32:24;;;;;;;;;0.00;0.00;;;;;;;;5009487;28;46012;-68
2023/11/19 01:34:49;;;;;;;;;1.00;0.00;;;;;;;;5011103;28;45584;-68
2023/11/19 01:37:15;;;;;;;;;0.00;0.00;;;;;;;;5008257;28;45604;-68
2023/11/19 01:39:40;;;;;;;;;0.00;0.00;;;;;;;;5009494;28;45606;-69
2023/11/19 01:42:05;;;;;;;;;3.00;1.00;;;;;;;;5010396;28;46607;-70
2023/11/19 01:44:32;;;;;;;;;0.00;0.00;;;;;;;;5008556;28;45439;-67
2023/11/19 01:46:57;;;;;;;;;1.00;1.00;;;;;;;;5008464;28;45557;-67
2023/11/19 01:49:22;;;;;;;;;0.00;0.00;;;;;;;;5010438;28;45866;-68
2023/11/19 01:51:47;;;;;;;;;0.00;0.00;;;;;;;;5006612;28;45499;-71
2023/11/19 01:54:15;;;;;;;;;0.00;0.00;;;;;;;;5007912;28;45485;-69
2023/11/19 01:56:40;;;;;;;;;0.00;0.00;;;;;;;;5009261;28;46682;-68
2023/11/19 01:59:06;;;;;;;;;1.00;0.00;;;;;;;;5010689;28;45561;-71
2023/11/19 02:01:34;;;;;;;;;0.00;0.00;;;;;;;;5009626;28;46577;-68
2023/11/19 02:03:59;;;;;;;;;0.33;0.33;;;;;;;;5008298;28;45449;-71
2023/11/19 02:06:25;;;;;;;;;0.33;0.00;;;;;;;;5010402;28;46194;-69
2023/11/19 02:08:51;;;;;;;;;0.00;0.00;;;;;;;;5009676;28;45574;-67
2023/11/19 02:11:16;;;;;;;;;1.33;1.00;;;;;;;;5010065;28;46836;-68
2023/11/19 02:13:43;;;;;;;;;1.00;1.00;;;;;;;;5010163;28;45498;-68
2023/11/19 02:16:11;;;;;;;;;0.00;0.00;;;;;;;;5008460;28;45507;-67
2023/11/19 02:18:36;;;;;;;;;0.33;0.33;;;;;;;;5007624;28;45655;-68
2023/11/19 02:21:01;;;;;;;;;1.00;0.00;;;;;;;;5008154;28;46600;-68
2023/11/19 02:23:30;;;;;;;;;1.00;1.00;;;;;;;;5009707;28;45617;-73
2023/11/19 02:25:55;;;;;;;;;0.00;0.00;;;;;;;;5005252;28;45808;-67
2023/11/19 02:28:20;;;;;;;;;0.00;0.00;;;;;;;;5008292;28;45502;-70
2023/11/19 02:30:45;;;;;;;;;0.00;0.00;;;;;;;;5008896;28;47643;-67
2023/11/19 02:33:10;;;;;;;;;0.00;0.00;;;;;;;;5008442;28;45993;-67
2023/11/19 02:35:36;;;;;;;;;0.00;0.00;;;;;;;;5008343;28;45637;-71
2023/11/19 02:38:01;;;;;;;;;1.00;1.00;;;;;;;;5010277;28;45693;-71
2023/11/19 02:40:27;;;;;;;;;2.00;0.00;;;;;;;;5007988;28;47557;-67
2023/11/19 02:42:54;;;;;;;;;0.00;0.00;;;;;;;;5010837;28;45586;-71
2023/11/19 02:45:19;;;;;;;;;2.00;0.00;;;;;;;;5010457;28;46022;-68
2023/11/19 02:47:44;;;;;;;;;0.00;0.00;;;;;;;;5007197;28;45460;-71
2023/11/19 02:50:14;;;;;;;;;0.00;0.00;;;;;;;;5008630;28;46635;-68
2023/11/19 02:52:42;;;;;;;;;0.33;0.00;;;;;;;;5009450;28;45519;-71
2023/11/19 02:55:12;;;;;;;;;2.00;0.67;;;;;;;;5008108;28;45577;-68
2023/11/19 02:57:50;;;;;;;;;2.00;0.00;;;;;;;;5008041;28;45483;-70
2023/11/19 03:00:16;;;;;;;;;1.67;1.00;;;;;;;;5009012;28;45442;-68
2023/11/19 03:02:45;;;;;;;;;0.00;0.00;;;;;;;;5008314;28;45713;-68
2023/11/19 03:05:11;;;;;;;;;0.33;0.00;;;;;;;;5007785;28;45465;-70
2023/11/19 03:07:37;;;;;;;;;0.00;0.00;;;;;;;;5008711;28;45614;-67
2023/11/19 03:10:02;;;;;;;;;1.00;0.00;;;;;;;;5008075;28;46148;-68
2023/11/19 03:12:27;;;;;;;;;3.00;0.00;;;;;;;;5008099;28;45478;-67
2023/11/19 03:14:52;;;;;;;;;2.33;0.00;;;;;;;;5009049;28;45719;-68
2023/11/19 03:17:18;;;;;;;;;0.00;0.00;;;;;;;;5008023;28;45695;-68
2023/11/19 03:19:44;;;;;;;;;2.67;0.00;;;;;;;;5007017;28;46480;-68
2023/11/19 03:22:10;;;;;;;;;0.00;0.00;;;;;;;;5008427;28;45347;-71
2023/11/19 03:24:36;;;;;;;;;2.00;1.00;;;;;;;;5007849;28;45575;-72
2023/11/19 03:27:01;;;;;;;;;0.67;0.00;;;;;;;;5007908;28;46552;-68
2023/11/19 03:29:26;;;;;;;;;0.00;0.00;;;;;;;;5008205;28;46205;-69
2023/11/19 03:31:51;;;;;;;;;2.00;0.00;;;;;;;;5008428;28;45447;-67
2023/11/19 03:34:16;;;;;;;;;0.33;0.33;;;;;;;;5010377;28;45494;-67
2023/11/19 03:36:42;;;;;;;;;0.00;0.00;;;;;;;;5009779;28;45573;-68
2023/11/19 03:39:08;;;;;;;;;7.33;1.00;;;;;;;;5008666;28;45824;-71
2023/11/19 03:41:33;;;;;;;;;0.67;0.67;;;;;;;;5009587;28;45546;-67
2023/11/19 03:43:58;;;;;;;;;2.00;1.00;;;;;;;;5009974;28;45925;-68
2023/11/19 03:46:23;;;;;;;;;0.00;0.00;;;;;;;;5009635;28;45680;-72
2023/11/19 03:48:49;;;;;;;;;0.00;0.00;;;;;;;;5008297;28;46420;-72
2023/11/19 03:51:15;;;;;;;;;0.00;0.00;;;;;;;;5009636;28;45894;-67
2023/11/19 03:53:42;;;;;;;;;1.67;0.67;;;;;;;;5005765;28;45860;-67
2023/11/19 03:56:09;;;;;;;;;4.33;1.00;;;;;;;;5007024;28;45525;-70
2023/11/19 03:58:34;;;;;;;;;1.00;0.00;;;;;;;;5005621;28;46507;-68
2023/11/19 04:01:00;;;;;;;;;0.00;0.00;;;;;;;;5008225;28;45510;-68
2023/11/19 04:03:26;;;;;;;;;1.00;0.33;;;;;;;;5009392;28;46238;-68
2023/11/19 04:05:51;;;;;;;;;2.00;0.00;;;;;;;;5007522;28;45510;-68
2023/11/19 04:08:16;;;;;;;;;1.00;1.00;;;;;;;;5008425;28;46436;-68
2023/11/19 04:10:41;;;;;;;;;0.00;0.00;;;;;;;;5006442;28;45646;-69
2023/11/19 04:13:06;;;;;;;;;1.33;0.33;;;;;;;;5008495;28;45480;-67
2023/11/19 04:15:31;;;;;;;;;0.33;0.33;;;;;;;;5010637;28;45708;-68
2023/11/19 04:17:57;;;;;;;;;1.33;0.67;;;;;;;;5011028;28;46644;-71
2023/11/19 04:20:22;;;;;;;;;1.00;1.00;;;;;;;;5005303;28;46493;-69
2023/11/19 04:22:47;;;;;;;;;1.00;0.00;;;;;;;;5011495;28;45529;-68
2023/11/19 04:25:13;;;;;;;;;1.33;0.00;;;;;;;;5010099;28;45615;-71
2023/11/19 04:27:39;;;;;;;;;1.33;0.00;;;;;;;;5010264;28;46655;-68
2023/11/19 04:30:05;;;;;;;;;2.00;0.00;;;;;;;;5010165;28;45482;-69
2023/11/19 04:32:30;;;;;;;;;4.00;0.00;;;;;;;;5010962;28;45615;-68
2023/11/19 04:34:55;;;;;;;;;0.67;0.67;;;;;;;;5011564;28;45444;-68
2023/11/19 04:37:21;;;;;;;;;0.67;0.00;;;;;;;;5011145;28;46359;-69
2023/11/19 04:39:46;;;;;;;;;0.00;0.00;;;;;;;;5010830;28;45543;-69
2023/11/19 04:42:11;;;;;;;;;1.00;0.00;;;;;;;;5011743;28;46259;-69
2023/11/19 04:44:36;;;;;;;;;1.00;1.00;;;;;;;;5011040;28;45555;-72
2023/11/19 04:47:01;;;;;;;;;0.00;0.00;;;;;;;;5011542;28;45816;-67
2023/11/19 04:49:27;;;;;;;;;1.00;0.00;;;;;;;;5011149;28;45465;-71
2023/11/19 04:51:52;;;;;;;;;2.33;0.33;;;;;;;;5012028;28;46110;-68
2023/11/19 04:54:18;;;;;;;;;0.00;0.00;;;;;;;;5009575;28;45575;-69
2023/11/19 04:56:47;;;;;;;;;0.00;0.00;;;;;;;;5010004;28;45677;-69
2023/11/19 04:59:12;;;;;;;;;0.00;0.00;;;;;;;;5009874;28;45825;-69
2023/11/19 05:01:37;;;;;;;;;0.67;0.67;;;;;;;;5010496;28;45582;-67
2023/11/19 05:04:03;;;;;;;;;0.00;0.00;;;;;;;;5010009;28;45605;-67
2023/11/19 05:06:29;;;;;;;;;1.00;1.00;;;;;;;;5011231;28;45899;-68
2023/11/19 05:08:54;;;;;;;;;2.00;0.00;;;;;;;;5013684;28;45542;-69
2023/11/19 05:11:19;;;;;;;;;5.00;0.00;;;;;;;;5010294;28;46466;-67
2023/11/19 05:13:45;;;;;;;;;0.00;0.00;;;;;;;;5013886;28;45526;-68
2023/11/19 05:16:10;;;;;;;;;3.00;1.00;;;;;;;;5008976;28;47429;-68
2023/11/19 05:18:35;;;;;;;;;0.00;0.00;;;;;;;;5011935;28;45517;-69
2023/11/19 05:21:00;;;;;;;;;0.67;0.67;;;;;;;;5010360;28;45447;-72
2023/11/19 05:23:25;;;;;;;;;4.00;1.00;;;;;;;;5015513;28;45566;-66
2023/11/19 05:25:50;;;;;;;;;0.00;0.00;;;;;;;;5013827;28;46022;-69
2023/11/19 05:28:16;;;;;;;;;2.33;0.00;;;;;;;;5013484;28;45541;-68
2023/11/19 05:30:41;;;;;;;;;1.67;0.00;;;;;;;;5010816;28;45419;-69
2023/11/19 05:33:07;;;;;;;;;3.00;1.00;;;;;;;;5016713;28;45689;-68
2023/11/19 05:35:34;;;;;;;;;2.00;0.33;;;;;;;;5010889;28;46831;-67
2023/11/19 05:37:59;;;;;;;;;1.67;0.00;;;;;;;;5011454;28;45430;-68
2023/11/19 05:40:24;;;;;;;;;2.67;0.00;;;;;;;;5013172;28;45866;-70
2023/11/19 05:42:49;;;;;;;;;2.00;0.00;;;;;;;;5013276;28;45645;-67
2023/11/19 05:45:14;;;;;;;;;2.00;0.00;;;;;;;;5009400;28;45543;-68
2023/11/19 05:47:41;;;;;;;;;0.00;0.00;;;;;;;;5011090;28;45595;-69
2023/11/19 05:50:06;;;;;;;;;0.33;0.33;;;;;;;;5014671;28;45553;-71
2023/11/19 05:52:33;;;;;;;;;1.33;0.00;;;;;;;;5018215;28;45462;-71
2023/11/19 05:55:02;;;;;;;;;1.00;1.00;;;;;;;;5014444;28;47769;-66
2023/11/19 05:57:29;;;;;;;;;0.33;0.33;;;;;;;;5020661;28;46349;-67
2023/11/19 05:59:54;;;;;;;;;0.33;0.33;;;;;;;;5008694;28;45566;-67
2023/11/19 06:02:19;;;;;;;;;2.00;0.00;;;;;;;;5013244;28;45599;-69
2023/11/19 06:04:47;;;;;;;;;1.00;1.00;;;;;;;;5012400;28;45478;-68
2023/11/19 06:07:12;;;;;;;;;2.00;1.00;;;;;;;;5012451;28;45655;-67
2023/11/19 06:09:38;;;;;;;;;0.67;0.00;;;;;;;;5009848;28;45553;-69
2023/11/19 06:12:03;;;;;;;;;1.00;1.00;;;;;;;;5017949;28;45603;-67
2023/11/19 06:14:29;;;;;;;;;1.00;1.00;;;;;;;;5007480;28;46683;-70
2023/11/19 06:16:54;;;;;;;;;3.00;0.00;;;;;;;;5016959;28;45375;-68
2023/11/19 06:19:19;;;;;;;;;0.00;0.00;;;;;;;;5013615;28;45602;-68
2023/11/19 06:21:44;;;;;;;;;1.33;0.00;;;;;;;;5014243;28;45587;-67
2023/11/19 06:24:09;;;;;;;;;1.00;1.00;;;;;;;;5014211;28;45679;-68
2023/11/19 06:26:35;;;;;;;;;0.00;0.00;;;;;;;;5017386;28;45431;-70
2023/11/19 06:29:00;;;;;;;;;2.00;1.00;;;;;;;;5008995;28;45490;-68
2023/11/19 06:31:25;;;;;;;;;0.33;0.33;;;;;;;;5014990;28;45415;-68
2023/11/19 06:33:50;;;;;;;;;2.00;0.67;;;;;;;;5013607;28;46640;-68
2023/11/19 06:36:18;;;;;;;;;1.00;1.00;;;;;;;;5010032;28;45576;-69
2023/11/19 06:38:44;;;;;;;;;2.00;1.00;;;;;;;;5007068;28;45427;-67
2023/11/19 06:41:09;;;;;;;;;4.33;1.00;;;;;;;;5010105;28;45538;-68
2023/11/19 06:43:34;;;;;;;;;3.67;1.67;;;;;;;;5012731;28;45611;-67
2023/11/19 06:45:59;;;;;;;;;3.00;1.33;;;;;;;;5017411;28;45629;-69
2023/11/19 06:48:25;;;;;;;;;1.00;1.00;;;;;;;;5008315;28;45606;-67
2023/11/19 06:50:50;;;;;;;;;0.67;0.67;;;;;;;;5017402;28;45418;-69
2023/11/19 06:53:15;;;;;;;;;4.00;1.00;;;;;;;;5011202;28;46506;-66
2023/11/19 06:55:40;;;;;;;;;0.67;0.67;;;;;;;;5010238;28;45458;-70
2023/11/19 06:58:06;;;;;;;;;4.00;1.00;;;;;;;;5007960;28;45670;-69
2023/11/19 07:00:32;;;;;;;;;2.00;1.00;;;;;;;;5008127;28;45460;-70
2023/11/19 07:02:57;;;;;;;;;5.33;2.00;;;;;;;;5011469;28;46829;-67
2023/11/19 07:05:23;;;;;;;;;3.67;0.00;;;;;;;;5013980;28;45479;-68
2023/11/19 07:07:49;;;;;;;;;0.33;0.33;;;;;;;;5012228;28;45451;-68
2023/11/19 07:10:14;;;;;;;;;2.00;1.00;;;;;;;;5011614;28;45513;-68
2023/11/19 07:12:39;;;;;;;;;2.67;0.00;;;;;;;;5012314;28;45510;-68
2023/11/19 07:15:05;;;;;;;;;1.00;1.00;;;;;;;;5008576;28;45813;-68
2023/11/19 07:17:30;;;;;;;;;3.67;0.67;;;;;;;;5007465;28;45507;-68
2023/11/19 07:19:59;;;;;;;;;3.00;1.00;;;;;;;;5010819;28;45594;-68
2023/11/19 07:22:24;;;;;;;;;1.00;1.00;;;;;;;;5006518;28;47528;-68
2023/11/19 07:24:50;;;;;;;;;0.00;0.00;;;;;;;;5008239;28;45504;-70
2023/11/19 07:27:15;;;;;;;;;1.00;1.00;;;;;;;;5010261;28;45478;-68
2023/11/19 07:29:41;;;;;;;;;0.00;0.00;;;;;;;;5010133;28;45418;-69
2023/11/19 07:32:08;;;;;;;;;5.00;1.00;;;;;;;;5010438;28;46574;-68
2023/11/19 07:34:33;;;;;;;;;2.33;0.00;;;;;;;;5012104;28;45457;-68
2023/11/19 07:37:02;;;;;;;;;1.00;1.00;;;;;;;;5008050;28;45498;-68
2023/11/19 07:39:27;;;;;;;;;5.00;1.00;;;;;;;;5002667;28;45479;-73
2023/11/19 07:41:52;;;;;;;;;2.00;1.00;;;;;;;;5007383;28;45764;-68
2023/11/19 07:44:17;;;;;;;;;2.33;1.00;;;;;;;;5010722;28;45419;-69
2023/11/19 07:46:44;;;;;;;;;3.00;1.00;;;;;;;;5008684;28;45761;-68
2023/11/19 07:49:10;;;;;;;;;3.00;1.00;;;;;;;;5012280;28;45521;-68
2023/11/19 07:51:35;;;;;;;;;3.00;2.00;;;;;;;;5138666;22;45685;-70
2023/11/19 07:54:00;;;;;;;;;2.00;1.00;;;;;;;;5025397;28;45633;-72
2023/11/19 07:56:25;;;;;;;;;2.00;1.00;;;;;;;;5026328;28;45569;-71
2023/11/19 07:58:51;;;;;;;;;2.00;1.00;;;;;;;;5027286;28;46170;-68
2023/11/19 08:01:17;;;;;;;;;2.33;1.00;;;;;;;;5022104;28;46324;-69
2023/11/19 08:03:42;;;;;;;;;1.33;1.00;;;;;;;;5029427;28;45536;-72
2023/11/19 08:06:07;;;;;;;;;2.00;1.00;;;;;;;;5028542;28;45766;-69
2023/11/19 08:08:33;;;;;;;;;5.00;1.00;;;;;;;;5025743;28;45459;-73
2023/11/19 08:10:58;;;;;;;;;2.33;0.67;;;;;;;;5030042;28;45621;-73
2023/11/19 08:13:24;;;;;;;;;1.00;1.00;;;;;;;;5028973;28;45454;-69
2023/11/19 08:15:50;;;;;;;;;0.33;0.00;;;;;;;;5030555;28;45497;-69
2023/11/19 08:18:15;;;;;;;;;3.00;1.00;;;;;;;;5028880;28;45422;-70
2023/11/19 08:20:41;;;;;;;;;0.00;0.00;;;;;;;;5031348;28;45586;-70
2023/11/19 08:23:06;;;;;;;;;3.00;2.00;;;;;;;;5030933;28;46051;-69
2023/11/19 08:25:33;;;;;;;;;0.67;0.67;;;;;;;;5017155;28;45675;-71
2023/11/19 08:27:58;;;;;;;;;2.33;1.00;;;;;;;;5017882;28;45832;-73
2023/11/19 08:30:24;;;;;;;;;1.67;1.00;;;;;;;;5027547;28;45702;-75
2023/11/19 08:32:49;;;;;;;;;1.00;1.00;;;;;;;;5022407;28;45434;-74
2023/11/19 08:35:15;;;;;;;;;3.67;0.67;;;;;;;;5023452;28;45917;-74
2023/11/19 08:37:42;;;;;;;;;4.33;1.00;;;;;;;;5020957;28;45515;-71
2023/11/19 08:40:07;;;;;;;;;1.00;1.00;;;;;;;;5021193;28;47647;-70
2023/11/19 08:42:32;;;;;;;;;2.00;1.00;;;;;;;;5018669;28;45512;-73
2023/11/19 08:44:57;;;;;;;;;3.33;2.00;;;;;;;;5014027;28;45662;-72
2023/11/19 08:47:23;;;;;;;;;2.33;1.00;;;;;;;;5023396;28;45594;-71
2023/11/19 08:49:50;;;;;;;;;2.33;2.33;;;;;;;;5027717;28;45434;-70
2023/11/19 08:52:17;;;;;;;;;4.67;1.00;;;;;;;;5028896;28;45792;-71
2023/11/19 08:54:42;;;;;;;;;4.00;1.00;;;;;;;;5027320;28;45558;-69
2023/11/19 08:57:08;;;;;;;;;4.67;1.00;;;;;;;;5024338;28;45480;-70
2023/11/19 08:59:34;;;;;;;;;9.33;2.33;;;;;;;;5021120;28;46090;-70
2023/11/19 09:01:59;;;;;;;;;4.33;1.00;;;;;;;;5030038;28;45489;-69
2023/11/19 09:04:24;;;;;;;;;4.00;1.00;;;;;;;;5027137;28;45928;-69
2023/11/19 09:06:49;;;;;;;;;8.00;3.33;;;;;;;;5025545;28;45461;-68
2023/11/19 09:09:14;;;;;;;;;1.00;1.00;;;;;;;;5028354;28;46149;-71
2023/11/19 09:11:40;;;;;;;;;2.00;2.00;;;;;;;;5029029;28;45501;-69
2023/11/19 09:14:05;;;;;;;;;4.50;1.00;;;;;;;;5028972;28;45687;-71
2023/11/19 09:16:31;;;;;;;;;5.67;1.67;;;;;;;;5030598;28;45517;-69
2023/11/19 09:18:57;;;;;;;;;2.67;1.00;;;;;;;;5029208;28;46863;-68
2023/11/19 09:21:22;;;;;;;;;5.67;2.00;;;;;;;;5025792;28;45554;-67
2023/11/19 09:23:49;;;;;;;;;3.00;2.00;;;;;;;;5027268;28;47100;-68
2023/11/19 09:26:14;;;;;;;;;6.33;2.33;;;;;;;;5027119;28;45516;-68
2023/11/19 09:28:39;;;;;;;;;6.33;3.67;;;;;;;;5029940;28;45809;-69
2023/11/19 09:31:14;;;;;;;;;2.67;2.00;;;;;;;;5027669;28;45512;-68
2023/11/19 09:33:40;;;;;;;;;3.00;0.00;;;;;;;;5031614;28;45512;-68
2023/11/19 09:36:06;;;;;;;;;4.00;0.67;;;;;;;;5030760;28;45431;-68
2023/11/19 09:38:31;;;;;;;;;2.67;1.00;;;;;;;;5030297;28;47800;-68
2023/11/19 09:40:57;;;;;;;;;4.33;2.00;;;;;;;;5029211;28;45552;-68
2023/11/19 09:43:23;;;;;;;;;2.67;1.67;;;;;;;;5029422;28;45516;-71
2023/11/19 09:45:52;;;;;;;;;4.67;1.67;;;;;;;;5029472;28;45516;-69
2023/11/19 09:48:18;;;;;;;;;8.00;2.00;;;;;;;;5026232;28;47328;-68
2023/11/19 09:50:44;;;;;;;;;5.33;1.33;;;;;;;;5029425;28;45501;-69
2023/11/19 09:53:09;;;;;;;;;2.33;1.33;;;;;;;;5028683;28;45564;-67
2023/11/19 09:55:34;;;;;;;;;4.00;2.00;;;;;;;;5027642;28;45645;-71
2023/11/19 09:58:01;;;;;;;;;4.67;2.33;;;;;;;;5028547;28;45851;-69
2023/11/19 10:00:27;;;;;;;;;4.00;3.00;;;;;;;;5028239;28;45487;-70
2023/11/19 10:02:53;;;;;;;;;8.33;2.00;;;;;;;;5028434;28;45542;-69
2023/11/19 10:05:20;;;;;;;;;4.67;1.00;;;;;;;;5029734;28;45505;-71
2023/11/19 10:07:45;;;;;;;;;3.67;2.00;;;;;;;;5029501;28;45857;-70
2023/11/19 10:10:15;;;;;;;;;3.00;1.33;;;;;;;;5029500;28;45652;-69
2023/11/19 10:12:40;;;;;;;;;9.67;3.00;;;;;;;;5028465;28;45520;-71
2023/11/19 10:15:07;;;;;;;;;1.00;1.00;;;;;;;;5023547;28;46251;-70
2023/11/19 10:17:33;;;;;;;;;5.67;1.33;;;;;;;;5026408;28;47722;-68
2023/11/19 10:19:59;;;;;;;;;4.33;2.00;;;;;;;;5030513;28;45477;-71
2023/11/19 10:22:24;;;;;;;;;6.33;1.00;;;;;;;;5031041;28;45413;-69
2023/11/19 10:24:50;;;;;;;;;2.67;1.00;;;;;;;;5028681;28;45991;-70
2023/11/19 10:27:15;;;;;;;;;1.00;1.00;;;;;;;;5027894;28;45503;-68
2023/11/19 10:29:43;;;;;;;;;2.33;0.67;;;;;;;;5030543;28;45622;-68
2023/11/19 10:32:09;;;;;;;;;2.00;1.00;;;;;;;;5030010;28;45388;-68
2023/11/19 10:34:37;;;;;;;;;6.00;2.00;;;;;;;;5029698;28;45593;-68
2023/11/19 10:37:02;;;;;;;;;5.33;2.67;;;;;;;;5025566;28;45722;-69
2023/11/19 10:39:47;;;;;;;;;4.67;2.00;;;;;;;;5031545;28;45505;-69
2023/11/19 10:42:16;;;;;;;;;7.00;1.00;;;;;;;;5027640;28;45545;-71
2023/11/19 10:44:41;;;;;;;;;5.00;2.00;;;;;;;;5033594;28;45665;-67
2023/11/19 10:47:08;;;;;;;;;2.33;1.00;;;;;;;;5029811;28;45498;-68
2023/11/19 10:49:35;;;;;;;;;6.67;2.67;;;;;;;;5031040;28;45501;-68
2023/11/19 10:52:00;;;;;;;;;7.00;3.00;;;;;;;;5033889;28;45462;-67
2023/11/19 10:54:26;;;;;;;;;3.67;1.00;;;;;;;;5030528;28;45456;-70
2023/11/19 10:56:54;;;;;;;;;7.00;1.00;;;;;;;;5028917;28;46667;-69
2023/11/19 10:59:21;;;;;;;;;9.00;2.00;;;;;;;;5028267;28;45475;-68
2023/11/19 11:01:48;;;;;;;;;4.00;2.00;;;;;;;;5029061;28;45525;-69
2023/11/19 11:04:22;;;;;;;;;4.67;3.00;;;;;;;;5031396;28;45566;-70
2023/11/19 11:06:48;;;;;;;;;4.00;1.67;;;;;;;;5032398;28;46615;-70
2023/11/19 11:09:13;;;;;;;;;5.67;1.00;;;;;;;;5033266;28;45681;-67
2023/11/19 11:11:46;;;;;;;;;4.67;2.00;;;;;;;;5031387;28;46795;-70
2023/11/19 11:14:13;;;;;;;;;4.00;2.33;;;;;;;;5025316;28;45650;-67
2023/11/19 11:16:42;;;;;;;;;5.33;1.33;;;;;;;;5027557;28;47936;-68
2023/11/19 11:19:09;;;;;;;;;7.33;2.00;;;;;;;;5029773;28;45527;-69
2023/11/19 11:21:37;;;;;;;;;4.00;1.33;;;;;;;;5031059;28;45510;-68
2023/11/19 11:24:20;;;;;;;;;7.67;3.00;;;;;;;;5029940;28;45584;-68
2023/11/19 11:26:46;;;;;;;;;5.67;3.00;;;;;;;;5033182;28;46480;-70
2023/11/19 11:29:20;;;;;;;;;7.00;1.00;;;;;;;;5031899;28;45652;-71
2023/11/19 11:32:04;;;;;;;;;5.33;2.00;;;;;;;;5037836;28;45650;-67
2023/11/19 11:34:41;;;;;;;;;1.33;1.00;;;;;;;;5032906;28;45476;-68
2023/11/19 11:37:16;;;;;;;;;4.00;1.00;;;;;;;;5029603;28;46575;-69
2023/11/19 11:39:41;;;;;;;;;2.00;2.00;;;;;;;;5034969;28;45510;-68
2023/11/19 11:42:21;;;;;;;;;4.67;3.00;;;;;;;;5032406;28;45914;-67
2023/11/19 11:45:09;;;;;;;;;3.00;2.00;;;;;;;;5034365;28;45628;-69
2023/11/19 11:47:44;;;;;;;;;4.00;2.00;;;;;;;;5031025;28;47017;-70
2023/11/19 11:50:13;;;;;;;;;3.33;2.00;;;;;;;;5029141;28;45527;-70
2023/11/19 11:52:59;;;;;;;;;7.00;3.00;;;;;;;;5032966;28;45993;-68
2023/11/19 11:55:27;;;;;;;;;6.33;2.00;;;;;;;;5036065;28;45534;-71
2023/11/19 11:57:53;;;;;;;;;3.00;1.00;;;;;;;;5030018;28;47257;-68
2023/11/19 12:00:30;;;;;;;;;6.33;3.00;;;;;;;;5036319;28;45522;-70
2023/11/19 12:02:56;;;;;;;;;8.33;2.33;;;;;;;;5031011;28;45504;-70
2023/11/19 12:05:22;;;;;;;;;10.67;3.00;;;;;;;;5034477;28;45477;-70
2023/11/19 12:08:00;;;;;;;;;4.33;3.00;;;;;;;;5032621;28;46647;-67
2023/11/19 12:10:25;;;;;;;;;3.33;2.67;;;;;;;;5032521;28;45574;-68
2023/11/19 12:12:57;;;;;;;;;9.00;2.67;;;;;;;;5030580;28;45924;-69
2023/11/19 12:15:25;;;;;;;;;3.00;1.00;;;;;;;;5029586;28;45403;-70
2023/11/19 12:17:50;;;;;;;;;9.00;3.00;;;;;;;;5026774;28;46492;-68
2023/11/19 12:20:16;;;;;;;;;6.33;2.33;;;;;;;;5036101;28;45711;-68
2023/11/19 12:22:42;;;;;;;;;5.67;2.00;;;;;;;;5031690;28;45658;-70
2023/11/19 12:25:08;;;;;;;;;6.33;2.00;;;;;;;;5035819;28;45633;-70
2023/11/19 12:27:33;;;;;;;;;5.33;1.67;;;;;;;;5030805;28;47322;-70
2023/11/19 12:29:59;;;;;;;;;2.67;2.33;;;;;;;;5032825;28;45659;-69
2023/11/19 12:32:24;;;;;;;;;4.00;1.67;;;;;;;;5036361;28;46101;-68
2023/11/19 12:34:50;;;;;;;;;3.00;1.33;;;;;;;;5034794;28;45691;-68
2023/11/19 12:37:15;;;;;;;;;4.33;1.00;;;;;;;;5032511;28;45477;-67
2023/11/19 12:39:40;;;;;;;;;7.00;1.00;;;;;;;;5029891;28;46337;-67
2023/11/19 12:42:05;;;;;;;;;6.67;3.00;;;;;;;;5034816;28;45627;-70
2023/11/19 12:44:31;;;;;;;;;4.33;1.00;;;;;;;;5034405;28;45625;-68
2023/11/19 12:47:03;;;;;;;;;1.00;1.00;;;;;;;;5031633;28;45836;-69
2023/11/19 12:49:28;;;;;;;;;3.00;1.33;;;;;;;;5031722;28;46472;-68
2023/11/19 12:51:53;;;;;;;;;4.67;2.00;;;;;;;;5034377;28;45465;-70
2023/11/19 12:54:19;;;;;;;;;3.00;2.00;;;;;;;;5032119;28;45569;-67
2023/11/19 12:56:53;;;;;;;;;3.67;3.00;;;;;;;;5029483;28;46202;-68
2023/11/19 12:59:18;;;;;;;;;9.00;3.00;;;;;;;;5029758;28;45585;-70
2023/11/19 13:01:56;;;;;;;;;4.67;1.00;;;;;;;;5030293;28;45494;-68
2023/11/19 13:04:22;;;;;;;;;5.00;2.00;;;;;;;;5030786;28;45574;-67
2023/11/19 13:06:47;;;;;;;;;2.33;1.00;;;;;;;;5031031;28;46614;-68
2023/11/19 13:09:24;;;;;;;;;6.00;0.67;;;;;;;;5033645;28;45822;-69
2023/11/19 13:11:49;;;;;;;;;4.00;2.00;;;;;;;;5032126;28;46479;-68
2023/11/19 13:14:14;;;;;;;;;4.00;2.67;;;;;;;;5029633;28;45601;-67
2023/11/19 13:16:39;;;;;;;;;6.00;2.00;;;;;;;;5035631;28;46252;-68
2023/11/19 13:19:05;;;;;;;;;5.00;3.00;;;;;;;;5022638;28;45479;-67
2023/11/19 13:21:30;;;;;;;;;4.33;2.00;;;;;;;;5036734;28;45552;-68
2023/11/19 13:23:55;;;;;;;;;8.33;2.33;;;;;;;;5032775;28;46692;-68
2023/11/19 13:26:21;;;;;;;;;7.00;2.00;;;;;;;;5028733;28;45461;-69
2023/11/19 13:28:46;;;;;;;;;3.33;1.00;;;;;;;;5030275;28;45553;-68
2023/11/19 13:31:11;;;;;;;;;2.00;2.00;;;;;;;;5031612;28;45961;-69
2023/11/19 13:33:36;;;;;;;;;7.00;2.00;;;;;;;;5036351;28;45604;-68
2023/11/19 13:36:05;;;;;;;;;2.67;1.33;;;;;;;;5032103;28;46631;-70
2023/11/19 13:38:31;;;;;;;;;5.00;1.00;;;;;;;;5029592;28;46018;-71
2023/11/19 13:40:56;;;;;;;;;4.00;2.00;;;;;;;;5032904;28;45466;-68
2023/11/19 13:43:22;;;;;;;;;1.67;1.33;;;;;;;;5034697;28;45478;-68
2023/11/19 13:45:47;;;;;;;;;6.67;1.67;;;;;;;;5032810;28;46540;-70
2023/11/19 13:48:12;;;;;;;;;3.00;1.67;;;;;;;;5027014;28;45681;-69
2023/11/19 13:50:37;;;;;;;;;1.00;1.00;;;;;;;;5031986;28;45544;-70
2023/11/19 13:53:04;;;;;;;;;2.33;1.67;;;;;;;;5030303;28;45581;-69
2023/11/19 13:55:29;;;;;;;;;4.33;1.00;;;;;;;;5034841;28;46104;-68
2023/11/19 13:57:55;;;;;;;;;6.33;2.00;;;;;;;;5030735;28;45419;-68
2023/11/19 14:00:22;;;;;;;;;8.00;2.00;;;;;;;;5029953;28;45435;-68
2023/11/19 14:02:48;;;;;;;;;3.00;2.00;;;;;;;;5035338;28;45402;-69
2023/11/19 14:05:14;;;;;;;;;3.33;2.67;;;;;;;;5034351;28;46465;-68
2023/11/19 14:07:39;;;;;;;;;5.33;2.00;;;;;;;;5030222;28;46038;-67
2023/11/19 14:10:11;;;;;;;;;9.67;2.00;;;;;;;;5028022;28;45552;-68
2023/11/19 14:12:37;;;;;;;;;9.33;2.00;;;;;;;;5030967;28;46056;-68
2023/11/19 14:15:02;;;;;;;;;1.33;1.33;;;;;;;;5026162;28;47617;-69
2023/11/19 14:17:27;;;;;;;;;6.00;1.00;;;;;;;;5029229;28;45549;-68
2023/11/19 14:19:53;;;;;;;;;4.00;2.00;;;;;;;;5033914;28;45657;-68
2023/11/19 14:22:18;;;;;;;;;6.33;1.00;;;;;;;;5030517;28;46571;-67
2023/11/19 14:24:43;;;;;;;;;5.33;1.67;;;;;;;;5031552;28;46445;-70
2023/11/19 14:27:09;;;;;;;;;5.00;1.33;;;;;;;;5030941;28;45544;-68
2023/11/19 14:29:35;;;;;;;;;6.00;2.00;;;;;;;;5028907;28;45602;-71
2023/11/19 14:32:02;;;;;;;;;4.67;1.67;;;;;;;;5035475;28;45620;-67
2023/11/19 14:34:27;;;;;;;;;2.00;1.00;;;;;;;;5031093;28;46748;-68
2023/11/19 14:36:53;;;;;;;;;4.00;2.00;;;;;;;;5035890;28;45516;-71